Time;durP1;ratioP1;P1;durP2;ratioP2;P2;SDS_P1;SDS_P2;PMS_P1;PMS_P2;Temp;Humidity;BMP_temperature;BMP_pressure;BME280_temperature;BME280_humidity;BME280_pressure;Samples;Min_cycle;Max_cycle;Signal;HPM_P1;HPM_P2
2022/04/03 00:00:22;;;;;;;3.57;2.07;;;2.80;99.90;;;;;;5027890;28;20472;-79
2022/04/03 00:02:49;;;;;;;4.30;2.40;;;2.70;99.90;;;;;;5025999;28;20449;-77
2022/04/03 00:05:19;;;;;;;3.40;2.10;;;2.70;99.90;;;;;;5024285;28;20965;-79
2022/04/03 00:07:46;;;;;;;4.77;2.33;;;2.70;99.90;;;;;;5027121;28;20454;-79
2022/04/03 00:10:14;;;;;;;3.23;2.23;;;2.70;99.90;;;;;;5022418;28;20569;-79
2022/04/03 00:12:41;;;;;;;4.73;2.67;;;2.70;99.90;;;;;;5017806;28;20557;-80
2022/04/03 00:15:09;;;;;;;5.10;2.20;;;2.60;99.90;;;;;;5005714;28;20474;-79
2022/04/03 00:17:36;;;;;;;3.63;2.23;;;2.70;99.90;;;;;;5017980;28;20457;-79
2022/04/03 00:20:03;;;;;;;4.70;2.20;;;2.60;99.90;;;;;;5017511;28;20480;-79
2022/04/03 00:22:31;;;;;;;3.83;1.80;;;2.50;99.90;;;;;;5018071;28;20476;-78
2022/04/03 00:24:58;;;;;;;3.67;2.13;;;2.50;99.90;;;;;;5017680;28;20446;-79
2022/04/03 00:27:25;;;;;;;4.83;2.03;;;2.50;99.90;;;;;;5018068;28;21204;-79
2022/04/03 00:29:52;;;;;;;5.93;2.03;;;2.50;99.90;;;;;;5014388;28;20569;-78
2022/04/03 00:32:19;;;;;;;4.80;2.10;;;2.50;99.90;;;;;;4997808;28;20454;-79
2022/04/03 00:34:46;;;;;;;6.13;2.50;;;2.50;99.90;;;;;;5012003;28;20549;-78
2022/04/03 00:37:13;;;;;;;7.60;2.60;;;2.60;99.90;;;;;;5017303;28;20820;-78
2022/04/03 00:39:41;;;;;;;5.30;2.13;;;2.60;99.90;;;;;;5009728;28;20566;-81
2022/04/03 00:42:09;;;;;;;6.70;2.87;;;2.60;99.90;;;;;;5017059;28;20456;-80
2022/04/03 00:44:37;;;;;;;10.43;1.90;;;2.70;99.90;;;;;;5016070;28;20453;-78
2022/04/03 00:47:04;;;;;;;3.63;2.17;;;2.70;99.90;;;;;;5015601;28;20893;-77
2022/04/03 00:49:32;;;;;;;4.70;2.80;;;2.70;99.90;;;;;;5016921;28;20557;-79
2022/04/03 00:51:59;;;;;;;7.77;2.70;;;2.70;99.90;;;;;;5015780;28;20905;-79
2022/04/03 00:54:26;;;;;;;5.00;3.07;;;2.70;99.90;;;;;;5015480;28;20778;-78
2022/04/03 00:56:54;;;;;;;5.57;2.17;;;2.60;99.90;;;;;;5017160;28;20481;-80
2022/04/03 00:59:21;;;;;;;5.57;2.40;;;2.60;99.90;;;;;;5019887;28;20482;-78
2022/04/03 01:01:49;;;;;;;4.10;2.43;;;2.50;99.90;;;;;;5019712;28;20471;-78
2022/04/03 01:04:15;;;;;;;6.70;3.20;;;2.60;99.90;;;;;;5022875;28;20454;-78
2022/04/03 01:06:42;;;;;;;3.60;2.30;;;2.50;99.90;;;;;;5023003;28;20455;-78
2022/04/03 01:09:11;;;;;;;5.23;2.63;;;2.60;99.90;;;;;;5021866;28;20513;-78
2022/04/03 01:11:39;;;;;;;3.67;1.90;;;2.60;99.90;;;;;;5016618;28;20455;-79
2022/04/03 01:14:07;;;;;;;5.70;2.77;;;2.70;99.90;;;;;;5017359;28;20489;-78
2022/04/03 01:16:35;;;;;;;6.90;2.47;;;2.70;99.90;;;;;;5018906;28;20488;-79
2022/04/03 01:19:02;;;;;;;4.30;1.90;;;2.70;99.90;;;;;;5017427;28;20470;-79
2022/04/03 01:21:29;;;;;;;4.40;2.47;;;2.70;99.90;;;;;;5018711;28;20456;-79
2022/04/03 01:23:56;;;;;;;4.03;2.10;;;2.70;99.90;;;;;;5016958;28;20457;-79
2022/04/03 01:26:25;;;;;;;3.50;2.10;;;2.70;99.90;;;;;;5017181;28;20892;-79
2022/04/03 01:28:52;;;;;;;4.63;2.57;;;2.70;99.90;;;;;;5018084;28;20899;-79
2022/04/03 01:31:19;;;;;;;10.23;2.90;;;2.70;99.90;;;;;;5017941;28;20446;-81
2022/04/03 01:33:46;;;;;;;3.67;2.07;;;2.70;99.90;;;;;;5017270;28;20625;-80
2022/04/03 01:36:13;;;;;;;6.17;2.47;;;2.70;99.90;;;;;;5017322;28;20489;-78
2022/04/03 01:38:39;;;;;;;3.60;2.60;;;2.60;99.90;;;;;;5012727;28;20536;-78
2022/04/03 01:41:06;;;;;;;3.90;2.40;;;2.60;99.90;;;;;;5004079;28;20445;-80
2022/04/03 01:43:34;;;;;;;4.93;2.83;;;2.60;99.90;;;;;;5015193;28;20961;-78
2022/04/03 01:46:01;;;;;;;4.40;2.47;;;2.60;99.90;;;;;;5014931;28;20843;-77
2022/04/03 01:48:28;;;;;;;4.63;2.67;;;2.60;99.90;;;;;;5014431;28;20471;-79
2022/04/03 01:50:55;;;;;;;6.70;3.07;;;2.60;99.90;;;;;;5014197;28;20461;-80
2022/04/03 01:53:22;;;;;;;6.23;2.60;;;2.50;99.90;;;;;;5013981;28;20454;-79
2022/04/03 01:55:59;;;;;;;4.40;2.27;;;2.50;99.90;;;;;;5010356;28;20537;-77
2022/04/03 01:58:26;;;;;;;4.93;2.30;;;2.40;99.90;;;;;;4995355;28;20549;-80
2022/04/03 02:00:54;;;;;;;4.97;2.73;;;2.40;99.90;;;;;;5010041;28;20454;-78
2022/04/03 02:03:21;;;;;;;4.27;2.27;;;2.30;99.90;;;;;;5013240;28;20529;-79
2022/04/03 02:05:48;;;;;;;3.90;2.50;;;2.30;99.90;;;;;;5015200;28;20481;-78
2022/04/03 02:08:15;;;;;;;2.90;2.10;;;2.30;99.90;;;;;;5014844;28;20958;-79
2022/04/03 02:10:43;;;;;;;6.00;2.53;;;2.30;99.90;;;;;;5014100;28;20461;-79
2022/04/03 02:13:09;;;;;;;4.20;2.10;;;2.20;99.90;;;;;;5019481;28;20458;-79
2022/04/03 02:15:37;;;;;;;3.20;2.30;;;2.20;99.90;;;;;;5014465;28;20504;-76
2022/04/03 02:18:05;;;;;;;3.90;2.47;;;2.20;99.90;;;;;;5015177;28;20460;-80
2022/04/03 02:20:32;;;;;;;3.70;2.37;;;2.10;99.90;;;;;;5014555;28;20428;-79
2022/04/03 02:22:59;;;;;;;3.83;2.60;;;2.20;99.90;;;;;;5014323;28;20508;-80
2022/04/03 02:25:26;;;;;;;4.23;2.70;;;2.10;99.90;;;;;;5014382;28;20462;-78
2022/04/03 02:27:53;;;;;;;3.40;2.43;;;2.20;99.90;;;;;;5017442;28;20984;-78
2022/04/03 02:30:20;;;;;;;6.20;3.40;;;2.10;99.90;;;;;;5018443;28;20477;-78
2022/04/03 02:32:47;;;;;;;5.87;4.00;;;2.10;99.90;;;;;;5015163;28;20489;-78
2022/04/03 02:35:15;;;;;;;10.10;4.40;;;2.10;99.90;;;;;;5015064;28;20548;-77
2022/04/03 02:37:43;;;;;;;5.90;3.50;;;2.10;99.90;;;;;;5027984;28;20460;-78
2022/04/03 02:40:12;;;;;;;5.90;3.73;;;2.10;99.90;;;;;;5015074;28;20477;-78
2022/04/03 02:42:39;;;;;;;7.33;3.30;;;2.10;99.90;;;;;;5022647;28;20462;-79
2022/04/03 02:45:07;;;;;;;7.40;3.37;;;2.10;99.90;;;;;;5026205;28;20829;-79
2022/04/03 02:47:34;;;;;;;7.20;3.70;;;2.10;99.90;;;;;;5018744;28;20416;-78
2022/04/03 02:50:01;;;;;;;5.90;2.90;;;2.00;99.90;;;;;;5015887;28;20477;-80
2022/04/03 02:52:29;;;;;;;6.70;3.53;;;1.90;99.90;;;;;;5017468;28;20445;-80
2022/04/03 02:54:57;;;;;;;4.80;3.17;;;1.90;99.90;;;;;;5020681;28;20458;-77
2022/04/03 02:57:24;;;;;;;6.00;3.00;;;1.90;99.90;;;;;;5020842;28;20468;-78
2022/04/03 02:59:51;;;;;;;11.30;3.60;;;1.90;99.90;;;;;;5020871;28;20549;-80
2022/04/03 03:02:18;;;;;;;4.50;2.50;;;1.80;99.90;;;;;;5021753;28;20456;-78
2022/04/03 03:04:45;;;;;;;4.67;2.20;;;1.80;99.90;;;;;;5021237;28;20453;-78
2022/04/03 03:07:12;;;;;;;5.00;2.57;;;1.70;99.90;;;;;;5022584;28;20449;-79
2022/04/03 03:09:40;;;;;;;3.90;2.37;;;1.70;99.90;;;;;;5022082;28;21233;-79
2022/04/03 03:12:08;;;;;;;2.93;2.27;;;1.70;99.90;;;;;;5020165;28;20776;-80
2022/04/03 03:14:35;;;;;;;6.67;3.17;;;1.60;99.90;;;;;;5016411;28;20472;-80
2022/04/03 03:17:02;;;;;;;5.00;2.97;;;1.50;99.90;;;;;;5017132;28;20831;-79
2022/04/03 03:19:29;;;;;;;3.70;2.30;;;1.40;99.90;;;;;;5016094;28;20489;-81
2022/04/03 03:21:55;;;;;;;4.90;2.45;;;1.30;99.90;;;;;;5016213;28;20476;-81
2022/04/03 03:24:22;;;;;;;6.93;2.77;;;1.20;99.90;;;;;;5015929;28;20637;-79
2022/04/03 03:26:50;;;;;;;5.63;3.03;;;1.20;99.90;;;;;;5016347;28;20454;-79
2022/04/03 03:29:17;;;;;;;5.50;2.77;;;1.20;99.90;;;;;;5016179;28;20234;-80
2022/04/03 03:31:44;;;;;;;4.40;2.75;;;1.10;99.90;;;;;;5016721;28;20543;-79
2022/04/03 03:34:11;;;;;;;5.82;2.95;;;1.00;99.90;;;;;;5015952;28;20207;-81
2022/04/03 03:36:37;;;;;;;7.28;3.10;;;1.00;99.90;;;;;;5024988;28;20230;-79
2022/04/03 03:39:04;;;;;;;4.22;2.53;;;1.00;99.90;;;;;;5029385;28;20218;-80
2022/04/03 03:41:32;;;;;;;4.47;2.65;;;0.90;99.90;;;;;;5027330;28;20631;-78
2022/04/03 03:44:03;;;;;;;4.50;2.95;;;0.80;99.90;;;;;;5028558;28;20211;-79
2022/04/03 03:46:30;;;;;;;4.10;2.83;;;0.80;99.90;;;;;;5014566;28;20199;-78
2022/04/03 03:48:57;;;;;;;5.90;2.85;;;0.80;99.90;;;;;;5013942;28;20936;-78
2022/04/03 03:51:23;;;;;;;4.63;2.83;;;0.70;99.90;;;;;;5012442;28;20211;-77
2022/04/03 03:53:50;;;;;;;5.70;3.55;;;0.60;99.90;;;;;;5008978;28;20205;-79
2022/04/03 03:56:17;;;;;;;7.35;3.78;;;0.60;99.90;;;;;;5013523;28;20260;-79
2022/04/03 03:58:44;;;;;;;4.25;2.92;;;0.50;99.90;;;;;;5013769;28;20221;-78
2022/04/03 04:01:12;;;;;;;4.70;2.85;;;0.50;99.90;;;;;;5013710;28;20281;-78
2022/04/03 04:03:39;;;;;;;5.50;3.43;;;0.40;99.90;;;;;;5013491;28;20206;-79
2022/04/03 04:06:06;;;;;;;6.15;2.90;;;0.30;99.90;;;;;;5026485;28;20966;-80
2022/04/03 04:08:33;;;;;;;5.93;3.50;;;0.20;99.90;;;;;;5013635;28;20741;-78
2022/04/03 04:11:00;;;;;;;7.75;3.17;;;0.20;99.90;;;;;;5013985;28;20209;-79
2022/04/03 04:13:27;;;;;;;4.93;3.53;;;0.10;99.90;;;;;;5016865;28;20207;-78
2022/04/03 04:15:54;;;;;;;6.20;2.70;;;0.10;99.90;;;;;;5017751;28;20216;-78
2022/04/03 04:18:22;;;;;;;3.88;2.50;;;0.00;99.90;;;;;;5016833;28;20320;-79
2022/04/03 04:20:50;;;;;;;4.45;3.42;;;0.00;99.90;;;;;;5017063;28;20202;-77
2022/04/03 04:23:17;;;;;;;6.35;4.03;;;0.00;99.90;;;;;;5015953;28;20205;-78
2022/04/03 04:25:44;;;;;;;6.53;3.95;;;0.00;99.90;;;;;;5017780;28;20208;-79
2022/04/03 04:28:11;;;;;;;5.47;3.15;;;0.00;99.90;;;;;;5016172;28;20206;-79
2022/04/03 04:30:38;;;;;;;6.88;3.20;;;-0.10;99.90;;;;;;5016779;28;20250;-77
2022/04/03 04:33:06;;;;;;;6.35;2.97;;;-0.20;99.90;;;;;;5016682;28;20199;-79
2022/04/03 04:35:34;;;;;;;4.88;3.03;;;-0.20;99.90;;;;;;5017140;28;20202;-77
2022/04/03 04:38:01;;;;;;;6.05;3.67;;;-0.20;99.90;;;;;;5017051;28;20317;-80
2022/04/03 04:40:29;;;;;;;5.30;2.70;;;-0.20;99.90;;;;;;5016423;28;20214;-78
2022/04/03 04:42:56;;;;;;;5.07;3.33;;;-0.30;99.90;;;;;;5016819;28;20209;-77
2022/04/03 04:45:23;;;;;;;4.95;2.55;;;-0.40;99.90;;;;;;4998280;28;20208;-77
2022/04/03 04:47:50;;;;;;;5.80;3.33;;;-0.40;99.90;;;;;;5003413;28;20666;-77
2022/04/03 04:50:18;;;;;;;9.30;3.70;;;-0.40;99.90;;;;;;5017014;28;20231;-78
2022/04/03 04:52:47;;;;;;;7.38;3.33;;;-0.40;99.90;;;;;;5016300;28;20199;-78
2022/04/03 04:55:13;;;;;;;5.53;3.35;;;-0.50;99.90;;;;;;5015986;28;20212;-77
2022/04/03 04:57:40;;;;;;;5.53;3.22;;;-0.50;99.90;;;;;;5015891;28;20320;-78
2022/04/03 05:00:09;;;;;;;7.03;3.28;;;-0.50;99.90;;;;;;5016465;28;20227;-79
2022/04/03 05:02:36;;;;;;;5.65;3.70;;;-0.50;99.90;;;;;;5016227;28;20213;-77
2022/04/03 05:05:05;;;;;;;4.63;3.17;;;-0.50;99.90;;;;;;5015915;28;20220;-77
2022/04/03 05:07:34;;;;;;;5.85;3.70;;;-0.50;99.90;;;;;;5016708;28;20205;-80
2022/04/03 05:10:03;;;;;;;4.65;3.42;;;-0.60;99.90;;;;;;5016336;28;20230;-77
2022/04/03 05:12:29;;;;;;;4.40;3.28;;;-0.50;99.90;;;;;;5016839;28;20198;-78
2022/04/03 05:14:57;;;;;;;5.72;3.05;;;-0.50;99.90;;;;;;5015706;28;20488;-77
2022/04/03 05:17:26;;;;;;;4.80;3.75;;;-0.50;99.90;;;;;;5015698;28;20305;-78
2022/04/03 05:19:53;;;;;;;7.40;4.05;;;-0.60;99.90;;;;;;4997121;28;20235;-79
2022/04/03 05:22:23;;;;;;;5.85;3.95;;;-0.60;99.90;;;;;;5002436;28;20202;-78
2022/04/03 05:24:50;;;;;;;7.07;3.63;;;-0.60;99.90;;;;;;5015485;28;20245;-78
2022/04/03 05:27:18;;;;;;;4.90;3.15;;;-0.60;99.90;;;;;;5016938;28;20218;-77
2022/04/03 05:29:45;;;;;;;5.30;3.05;;;-0.50;99.90;;;;;;5015773;28;20235;-79
2022/04/03 05:32:12;;;;;;;7.28;4.55;;;-0.50;99.90;;;;;;5016075;28;20209;-78
2022/04/03 05:34:39;;;;;;;5.18;3.30;;;-0.50;99.90;;;;;;5013892;28;20222;-77
2022/04/03 05:37:07;;;;;;;8.88;3.92;;;-0.60;99.90;;;;;;4998362;28;20744;-78
2022/04/03 05:39:33;;;;;;;11.88;3.95;;;-0.50;99.90;;;;;;5016320;28;20249;-78
2022/04/03 05:42:00;;;;;;;7.20;3.60;;;-0.50;99.90;;;;;;5015713;28;20213;-79
2022/04/03 05:44:28;;;;;;;9.27;4.13;;;-0.60;99.90;;;;;;5014955;28;20679;-77
2022/04/03 05:46:56;;;;;;;6.45;3.75;;;-0.50;99.90;;;;;;5006867;28;20216;-78
2022/04/03 05:49:23;;;;;;;5.28;3.55;;;-0.40;99.90;;;;;;5015456;28;20244;-79
2022/04/03 05:51:51;;;;;;;5.32;3.47;;;-0.40;99.90;;;;;;5015806;28;20210;-78
2022/04/03 05:54:18;;;;;;;5.13;3.63;;;-0.40;99.90;;;;;;5016165;28;20208;-78
2022/04/03 05:56:44;;;;;;;5.10;3.58;;;-0.40;99.90;;;;;;5017280;28;20226;-80
2022/04/03 05:59:11;;;;;;;4.57;3.45;;;-0.20;99.90;;;;;;5016853;28;20316;-80
2022/04/03 06:01:40;;;;;;;6.30;3.53;;;-0.10;99.90;;;;;;5016333;28;20209;-80
2022/04/03 06:04:07;;;;;;;6.03;3.30;;;0.00;99.90;;;;;;5016684;28;20680;-78
2022/04/03 06:06:34;;;;;;;5.43;3.90;;;0.10;99.90;;;;;;5016539;28;20705;-81
2022/04/03 06:09:00;;;;;;;5.63;3.83;;;0.10;99.90;;;;;;5016372;28;20426;-82
2022/04/03 06:11:27;;;;;;;6.25;3.85;;;0.20;99.90;;;;;;5026892;28;20265;-80
2022/04/03 06:13:54;;;;;;;6.30;3.42;;;0.30;99.90;;;;;;5028826;28;20207;-79
2022/04/03 06:16:21;;;;;;;6.20;4.00;;;0.40;99.90;;;;;;5028301;28;20206;-81
2022/04/03 06:18:49;;;;;;;7.32;3.90;;;0.50;99.90;;;;;;5024395;28;20234;-79
2022/04/03 06:21:17;;;;;;;5.07;3.40;;;0.60;99.90;;;;;;5018781;28;20237;-78
2022/04/03 06:23:44;;;;;;;6.55;3.30;;;0.60;99.90;;;;;;5019620;28;20237;-79
2022/04/03 06:26:10;;;;;;;6.05;3.50;;;0.70;99.90;;;;;;5019080;28;20286;-78
2022/04/03 06:28:37;;;;;;;5.63;3.60;;;0.80;99.90;;;;;;5023718;28;20220;-80
2022/04/03 06:31:04;;;;;;;7.43;4.03;;;0.90;99.90;;;;;;5026337;28;20465;-79
2022/04/03 06:33:31;;;;;;;8.20;4.32;;;0.90;99.90;;;;;;5027950;28;20584;-79
2022/04/03 06:36:02;;;;;;;6.38;4.18;;;1.00;99.90;;;;;;5025921;28;20222;-79
2022/04/03 06:38:30;;;;;;;5.90;2.90;;;1.00;99.90;;;;;;5029664;28;20226;-79
2022/04/03 06:40:59;;;;;;;5.67;3.80;;;1.10;99.90;;;;;;5028040;28;20458;-79
2022/04/03 06:43:27;;;;;;;5.20;3.72;;;1.20;99.90;;;;;;5019726;28;20536;-77
2022/04/03 06:45:55;;;;;;;9.57;4.47;;;1.20;99.90;;;;;;5026877;28;20211;-79
2022/04/03 06:48:27;;;;;;;7.28;3.72;;;1.20;99.90;;;;;;5022929;28;20241;-79
2022/04/03 06:50:54;;;;;;;8.07;4.10;;;1.20;99.90;;;;;;5023267;28;20355;-79
2022/04/03 06:53:22;;;;;;;5.40;3.78;;;1.30;99.90;;;;;;5023865;28;20291;-80
2022/04/03 06:55:49;;;;;;;6.63;5.93;;;1.30;99.90;;;;;;5026261;28;20301;-79
2022/04/03 06:58:15;;;;;;;7.10;4.05;;;1.40;99.90;;;;;;5023973;28;20488;-79
2022/04/03 07:00:42;;;;;;;6.40;3.40;;;1.50;99.90;;;;;;5023291;28;20195;-80
2022/04/03 07:03:12;;;;;;;5.68;3.38;;;1.50;99.90;;;;;;5021111;28;20202;-79
2022/04/03 07:05:42;;;;;;;6.82;3.78;;;1.60;99.90;;;;;;5025050;28;20209;-80
2022/04/03 07:08:08;;;;;;;7.85;4.22;;;1.70;99.90;;;;;;5019275;28;20234;-78
2022/04/03 07:10:37;;;;;;;7.38;3.30;;;1.80;99.90;;;;;;5025821;28;20667;-79
2022/04/03 07:13:04;;;;;;;5.47;3.67;;;1.90;99.90;;;;;;5016894;28;20282;-79
2022/04/03 07:15:31;;;;;;;3.60;2.77;;;2.00;99.90;;;;;;5028470;28;20942;-78
2022/04/03 07:17:58;;;;;;;5.00;3.22;;;2.10;99.90;;;;;;5022219;28;20481;-77
2022/04/03 07:20:24;;;;;;;5.47;3.57;;;2.20;99.90;;;;;;5014831;28;20773;-78
2022/04/03 07:22:55;;;;;;;5.30;3.47;;;2.40;99.90;;;;;;5014564;28;20448;-77
2022/04/03 07:25:23;;;;;;;8.03;3.60;;;2.40;99.90;;;;;;5018445;28;20862;-78
2022/04/03 07:27:51;;;;;;;8.07;3.40;;;2.60;99.90;;;;;;5017932;28;20472;-77
2022/04/03 07:30:18;;;;;;;5.23;3.37;;;2.70;99.90;;;;;;5012907;28;20481;-78
2022/04/03 07:32:44;;;;;;;5.13;2.40;;;2.90;99.90;;;;;;5013352;28;20958;-77
2022/04/03 07:35:12;;;;;;;4.83;2.57;;;2.90;99.90;;;;;;5011305;28;20453;-78
2022/04/03 07:37:39;;;;;;;4.40;2.20;;;3.10;99.90;;;;;;5013679;28;20485;-77
2022/04/03 07:40:08;;;;;;;6.13;3.73;;;3.20;99.90;;;;;;5013443;28;20492;-78
2022/04/03 07:42:35;;;;;;;4.87;3.63;;;3.40;99.90;;;;;;5012847;28;20457;-78
2022/04/03 07:45:04;;;;;;;6.23;2.60;;;3.80;99.90;;;;;;5013585;28;20455;-79
2022/04/03 07:47:31;;;;;;;4.10;2.43;;;4.10;99.90;;;;;;5020401;28;20450;-80
2022/04/03 07:49:59;;;;;;;9.23;2.83;;;5.00;99.90;;;;;;5020269;28;20731;-79
2022/04/03 07:52:25;;;;;;;5.00;2.47;;;5.50;99.90;;;;;;5019693;28;20488;-80
2022/04/03 07:54:52;;;;;;;6.50;2.23;;;6.40;99.90;;;;;;5019852;28;20462;-80
2022/04/03 07:57:20;;;;;;;4.37;2.40;;;7.10;99.90;;;;;;5020087;28;20506;-79
2022/04/03 07:59:47;;;;;;;3.53;1.80;;;7.40;99.90;;;;;;5021004;28;20478;-79
2022/04/03 08:02:15;;;;;;;4.27;2.50;;;8.00;99.90;;;;;;5020392;28;20465;-80
2022/04/03 08:04:42;;;;;;;5.63;2.53;;;8.80;99.90;;;;;;5020423;28;20463;-79
2022/04/03 08:07:09;;;;;;;3.47;1.80;;;9.20;99.90;;;;;;5020768;28;20983;-79
2022/04/03 08:09:36;;;;;;;5.90;2.40;;;9.20;99.90;;;;;;5029221;28;20481;-80
2022/04/03 08:12:03;;;;;;;3.80;1.93;;;9.90;99.90;;;;;;5021066;28;20468;-81
2022/04/03 08:14:30;;;;;;;4.80;1.90;;;10.30;99.90;;;;;;5020192;28;20456;-80
2022/04/03 08:16:56;;;;;;;4.40;1.60;;;10.80;99.90;;;;;;5011762;28;20461;-78
2022/04/03 08:19:24;;;;;;;4.60;1.87;;;10.50;99.90;;;;;;5017787;28;20500;-78
2022/04/03 08:21:51;;;;;;;3.00;1.90;;;10.30;99.90;;;;;;5018505;28;20963;-78
2022/04/03 08:24:18;;;;;;;3.13;2.13;;;10.80;99.90;;;;;;5012207;28;20472;-78
2022/04/03 08:26:45;;;;;;;3.53;2.07;;;11.70;99.90;;;;;;5014735;28;20479;-78
2022/04/03 08:29:11;;;;;;;5.60;2.60;;;12.80;98.40;;;;;;5025347;28;20565;-77
2022/04/03 08:31:38;;;;;;;5.90;2.97;;;12.80;95.30;;;;;;5020686;28;20464;-80
2022/04/03 08:34:05;;;;;;;6.43;3.10;;;12.40;95.20;;;;;;5018320;28;20468;-80
2022/04/03 08:36:35;;;;;;;3.97;2.30;;;11.00;95.20;;;;;;5016615;28;20836;-80
2022/04/03 08:39:02;;;;;;;3.73;2.80;;;11.60;94.30;;;;;;5015212;28;20507;-78
2022/04/03 08:41:29;;;;;;;3.53;1.97;;;10.80;94.70;;;;;;5017384;28;20463;-78
2022/04/03 08:44:01;;;;;;;4.10;2.13;;;10.90;94.00;;;;;;5013626;28;20457;-78
2022/04/03 08:46:33;;;;;;;4.53;2.90;;;11.00;94.60;;;;;;5016012;28;20510;-78
2022/04/03 08:49:01;;;;;;;2.77;1.93;;;10.80;92.60;;;;;;5017522;28;20469;-79
2022/04/03 08:51:30;;;;;;;4.00;1.90;;;10.60;94.00;;;;;;5017122;28;20457;-78
2022/04/03 08:53:59;;;;;;;5.30;3.10;;;10.20;93.40;;;;;;5015616;28;20457;-78
2022/04/03 08:56:25;;;;;;;4.83;1.93;;;10.00;94.20;;;;;;5017299;28;20459;-79
2022/04/03 08:58:52;;;;;;;3.87;2.03;;;9.90;94.10;;;;;;5013430;28;20497;-78
2022/04/03 09:01:19;;;;;;;3.37;2.07;;;9.30;93.30;;;;;;5021453;28;20477;-78
2022/04/03 09:03:46;;;;;;;3.90;1.90;;;8.70;92.40;;;;;;5021312;28;20492;-77
2022/04/03 09:06:18;;;;;;;3.17;2.07;;;8.20;93.20;;;;;;5015561;28;20469;-76
2022/04/03 09:08:45;;;;;;;3.80;1.83;;;8.30;95.20;;;;;;5015550;28;20470;-78
2022/04/03 09:11:14;;;;;;;4.00;1.83;;;8.10;94.40;;;;;;5015512;28;20458;-79
2022/04/03 09:13:42;;;;;;;5.00;2.00;;;8.00;94.50;;;;;;5014569;28;20458;-78
2022/04/03 09:16:09;;;;;;;3.50;1.80;;;8.20;95.30;;;;;;5015440;28;20460;-78
2022/04/03 09:18:47;;;;;;;3.03;1.70;;;8.10;94.30;;;;;;5015289;28;21049;-77
2022/04/03 09:21:18;;;;;;;3.77;2.10;;;8.00;95.80;;;;;;5025417;28;20472;-78
2022/04/03 09:24:06;;;;;;;4.00;1.60;;;8.20;96.20;;;;;;5000629;28;20446;-79
2022/04/03 09:26:36;;;;;;;5.20;1.50;;;8.00;95.30;;;;;;5015050;28;20453;-78
2022/04/03 09:29:07;;;;;;;5.17;2.37;;;8.00;96.60;;;;;;5014252;28;20479;-78
2022/04/03 09:31:34;;;;;;;5.57;1.70;;;7.70;97.30;;;;;;5011529;28;20450;-78
2022/04/03 09:34:02;;;;;;;3.60;1.90;;;7.70;97.70;;;;;;5013061;28;20481;-79
2022/04/03 09:36:30;;;;;;;4.70;2.17;;;7.50;96.30;;;;;;5016042;28;20450;-79
2022/04/03 09:39:06;;;;;;;2.70;1.70;;;7.50;98.40;;;;;;5011636;28;20496;-79
2022/04/03 09:41:35;;;;;;;2.60;1.60;;;7.70;98.60;;;;;;5015352;28;20475;-78
2022/04/03 09:44:16;;;;;;;3.00;1.40;;;7.80;96.60;;;;;;5015709;28;20454;-78
2022/04/03 09:46:43;;;;;;;3.30;1.67;;;7.90;97.10;;;;;;5006842;28;20528;-79
2022/04/03 09:49:23;;;;;;;5.43;1.60;;;7.90;97.50;;;;;;5015570;28;20455;-79
2022/04/03 09:51:50;;;;;;;3.60;1.97;;;8.10;97.30;;;;;;5014612;28;20458;-78
2022/04/03 09:54:19;;;;;;;7.10;2.30;;;8.00;97.20;;;;;;5016349;28;20457;-79
2022/04/03 09:56:47;;;;;;;2.83;1.40;;;8.00;96.60;;;;;;5016496;28;20464;-79
2022/04/03 09:59:15;;;;;;;4.90;2.50;;;7.90;96.80;;;;;;5010823;28;20992;-79
2022/04/03 10:01:43;;;;;;;3.30;2.10;;;7.80;97.40;;;;;;5016465;28;20458;-79
2022/04/03 10:04:13;;;;;;;3.83;2.00;;;7.90;98.20;;;;;;5012454;28;20930;-79
2022/04/03 10:06:40;;;;;;;3.70;1.73;;;8.00;96.70;;;;;;5016049;28;20454;-79
2022/04/03 10:09:11;;;;;;;4.30;1.80;;;8.20;97.60;;;;;;5012173;28;20473;-79
2022/04/03 10:11:38;;;;;;;4.07;1.97;;;8.50;97.60;;;;;;5015749;28;20480;-79
2022/04/03 10:14:07;;;;;;;3.37;1.90;;;8.30;96.70;;;;;;5011690;28;20464;-78
2022/04/03 10:16:34;;;;;;;5.90;1.60;;;8.10;96.50;;;;;;5011993;28;20887;-78
2022/04/03 10:19:02;;;;;;;5.40;3.40;;;8.10;96.80;;;;;;5020215;28;20489;-78
2022/04/03 10:21:37;;;;;;;4.43;1.67;;;8.10;98.80;;;;;;5036913;28;20455;-79
2022/04/03 10:24:10;;;;;;;8.23;2.23;;;8.00;97.50;;;;;;5022674;28;20544;-79
2022/04/03 10:26:39;;;;;;;3.23;1.40;;;7.80;97.70;;;;;;5019391;28;20497;-79
2022/04/03 10:29:10;;;;;;;3.40;1.97;;;8.50;98.40;;;;;;5021213;28;20484;-79
2022/04/03 10:31:38;;;;;;;4.00;2.13;;;9.30;99.90;;;;;;5024405;28;20537;-79
2022/04/03 10:34:05;;;;;;;2.80;1.20;;;10.50;95.80;;;;;;5020248;28;20448;-79
2022/04/03 10:36:34;;;;;;;4.17;2.10;;;11.20;94.90;;;;;;5014167;28;20546;-79
2022/04/03 10:39:03;;;;;;;3.60;1.23;;;12.00;96.20;;;;;;5018962;28;20497;-79
2022/04/03 10:41:33;;;;;;;4.13;1.50;;;13.80;95.00;;;;;;5018180;28;20486;-80
2022/04/03 10:44:16;;;;;;;2.50;1.33;;;15.60;93.90;;;;;;5017890;28;20807;-79
2022/04/03 10:47:21;;;;;;;2.70;1.67;;;17.90;84.50;;;;;;5020686;28;20521;-79
2022/04/03 10:49:50;;;;;;;3.90;2.40;;;18.10;76.00;;;;;;5026315;28;20545;-79
2022/04/03 10:52:47;;;;;;;6.20;3.33;;;19.80;66.90;;;;;;5024089;28;20516;-80
2022/04/03 10:55:16;;;;;;;5.80;3.63;;;21.30;62.60;;;;;;5024525;28;20441;-79
2022/04/03 10:57:44;;;;;;;3.03;2.00;;;20.60;59.60;;;;;;5015220;28;20549;-79
2022/04/03 11:00:31;;;;;;;2.77;1.47;;;21.20;58.20;;;;;;5015182;28;20525;-79
2022/04/03 11:03:02;;;;;;;2.63;1.30;;;20.80;54.20;;;;;;5015317;28;20487;-78
2022/04/03 11:05:42;;;;;;;19.43;16.13;;;21.40;56.00;;;;;;5016252;28;20448;-79
2022/04/03 11:08:18;;;;;;;10.33;7.03;;;23.60;55.20;;;;;;5015385;28;20821;-79
2022/04/03 11:10:49;;;;;;;3.80;3.50;;;24.00;53.00;;;;;;5015244;28;20469;-80
2022/04/03 11:13:16;;;;;;;5.13;1.27;;;24.90;50.80;;;;;;5013679;28;20568;-77
2022/04/03 11:15:54;;;;;;;3.17;1.60;;;24.40;50.50;;;;;;5014542;28;20465;-79
2022/04/03 11:18:28;;;;;;;3.83;2.13;;;23.80;50.50;;;;;;5014709;28;20497;-79
2022/04/03 11:21:09;;;;;;;3.03;1.40;;;25.30;47.40;;;;;;5018964;28;20548;-79
2022/04/03 11:23:37;;;;;;;3.03;1.70;;;25.30;51.20;;;;;;5021519;28;20457;-79
2022/04/03 11:26:04;;;;;;;3.47;1.23;;;24.90;48.70;;;;;;5040969;28;20452;-79
2022/04/03 11:28:34;;;;;;;3.77;1.73;;;24.00;48.70;;;;;;5042720;28;20479;-79
2022/04/03 11:31:03;;;;;;;6.33;1.57;;;25.30;48.20;;;;;;5042720;28;20441;-79
2022/04/03 11:33:31;;;;;;;2.30;1.33;;;26.20;48.10;;;;;;5042310;28;20883;-80
2022/04/03 11:36:03;;;;;;;2.77;1.37;;;24.40;45.90;;;;;;5041265;28;20464;-79
2022/04/03 11:38:35;;;;;;;2.80;1.77;;;21.40;44.30;;;;;;5040919;28;20535;-79
2022/04/03 11:41:04;;;;;;;6.27;1.70;;;20.00;47.60;;;;;;5039125;28;20510;-80
2022/04/03 11:43:30;;;;;;;3.10;1.47;;;20.20;48.60;;;;;;5020613;28;20494;-79
2022/04/03 11:45:59;;;;;;;3.67;1.33;;;19.30;48.30;;;;;;5020502;28;20447;-79
2022/04/03 11:48:30;;;;;;;2.63;1.50;;;19.40;48.70;;;;;;5007545;28;20477;-79
2022/04/03 11:51:08;;;;;;;3.70;1.67;;;20.40;51.00;;;;;;5017706;28;20449;-79
2022/04/03 11:53:35;;;;;;;4.30;1.80;;;20.10;47.90;;;;;;5007486;28;20988;-78
2022/04/03 11:56:10;;;;;;;3.13;1.80;;;21.30;48.20;;;;;;5013352;28;20468;-79
2022/04/03 11:58:43;;;;;;;2.73;1.13;;;21.20;49.70;;;;;;5015404;28;20500;-78
2022/04/03 12:01:10;;;;;;;2.37;1.13;;;21.20;46.90;;;;;;5019106;28;20452;-79
2022/04/03 12:03:39;;;;;;;2.10;1.13;;;20.80;47.80;;;;;;5018278;28;20465;-79
2022/04/03 12:06:14;;;;;;;2.20;1.10;;;20.70;46.10;;;;;;5010751;28;20824;-79
2022/04/03 12:08:42;;;;;;;2.17;1.50;;;21.30;47.20;;;;;;5024982;28;20469;-79
2022/04/03 12:11:24;;;;;;;2.47;1.33;;;22.30;46.40;;;;;;5032574;28;20448;-79
2022/04/03 12:13:51;;;;;;;2.07;0.97;;;23.50;48.60;;;;;;5024522;28;20457;-78
2022/04/03 12:16:20;;;;;;;2.90;1.40;;;24.00;46.10;;;;;;5021692;28;20456;-78
2022/04/03 12:18:50;;;;;;;3.50;1.17;;;24.80;44.40;;;;;;5021683;28;20520;-79
2022/04/03 12:21:17;;;;;;;3.70;1.30;;;24.20;44.80;;;;;;5022307;28;20742;-79
2022/04/03 12:24:03;;;;;;;6.33;1.53;;;23.60;44.80;;;;;;5020582;28;20496;-78
2022/04/03 12:26:30;;;;;;;3.50;1.63;;;22.90;44.60;;;;;;5020003;28;20452;-79
2022/04/03 12:28:57;;;;;;;2.63;1.20;;;22.10;43.60;;;;;;5017628;28;20477;-79
2022/04/03 12:31:27;;;;;;;3.80;1.70;;;19.40;46.70;;;;;;5010985;28;20462;-79
2022/04/03 12:34:06;;;;;;;2.97;1.50;;;19.40;47.30;;;;;;5016134;28;20461;-79
2022/04/03 12:36:38;;;;;;;2.70;1.80;;;18.80;45.80;;;;;;5009535;28;20453;-78
2022/04/03 12:39:07;;;;;;;3.07;1.20;;;18.10;48.20;;;;;;5016326;28;20495;-78
2022/04/03 12:41:34;;;;;;;3.50;1.40;;;18.90;50.30;;;;;;5016390;28;20457;-79
2022/04/03 12:44:01;;;;;;;3.87;1.80;;;19.90;50.00;;;;;;5014877;28;20460;-78
2022/04/03 12:46:41;;;;;;;3.80;1.80;;;20.20;47.50;;;;;;5017089;28;20467;-79
2022/04/03 12:49:16;;;;;;;2.60;1.40;;;17.60;47.30;;;;;;5016476;28;20483;-80
2022/04/03 12:51:46;;;;;;;2.40;1.40;;;16.00;48.00;;;;;;5019478;28;20455;-79
2022/04/03 12:54:23;;;;;;;4.13;1.43;;;14.90;51.40;;;;;;5016829;28;20460;-79
2022/04/03 12:59:54;;;;;;;3.60;1.90;;;13.00;54.30;;;;;;5013888;28;20483;-80
2022/04/03 13:02:21;;;;;;;3.93;2.17;;;11.50;58.10;;;;;;5018615;28;20454;-80